createdAt,value
2018-10-19T00:00:26.006Z,100.00
2018-10-19T00:02:55.099Z,100.00
2018-10-19T00:05:23.434Z,100.00
2018-10-19T00:07:51.729Z,100.00
2018-10-19T00:10:20.034Z,100.00
2018-10-19T00:12:48.381Z,100.00
2018-10-19T00:15:17.235Z,100.00
2018-10-19T00:17:45.394Z,100.00
2018-10-19T00:20:13.715Z,100.00
2018-10-19T00:22:42.039Z,100.00
2018-10-19T00:25:10.382Z,100.00
2018-10-19T00:27:39.008Z,100.00
2018-10-19T00:30:08.761Z,100.00
2018-10-19T00:32:37.128Z,100.00
2018-10-19T00:35:06.170Z,100.00
2018-10-19T00:37:35.037Z,100.00
2018-10-19T00:40:03.500Z,100.00
2018-10-19T00:42:31.827Z,100.00
2018-10-19T00:45:00.269Z,100.00
2018-10-19T00:47:28.830Z,100.00
2018-10-19T00:49:57.528Z,100.00
2018-10-19T00:52:25.863Z,100.00
2018-10-19T00:54:54.290Z,100.00
2018-10-19T00:57:22.647Z,100.00
2018-10-19T00:59:51.146Z,100.00
2018-10-19T01:02:19.780Z,100.00
2018-10-19T01:04:48.419Z,100.00
2018-10-19T01:07:16.782Z,100.00
2018-10-19T01:09:45.096Z,100.00
2018-10-19T01:12:20.307Z,100.00
2018-10-19T01:14:48.734Z,100.00
2018-10-19T01:17:17.075Z,100.00
2018-10-19T01:19:45.487Z,100.00
2018-10-19T01:22:14.060Z,100.00
2018-10-19T01:24:42.960Z,100.00
2018-10-19T01:27:11.430Z,100.00
2018-10-19T01:29:39.739Z,100.00
2018-10-19T01:32:08.134Z,100.00
2018-10-19T01:34:36.456Z,100.00
2018-10-19T01:37:05.781Z,100.00
2018-10-19T01:39:34.073Z,100.00
2018-10-19T01:42:02.392Z,100.00
2018-10-19T01:44:32.230Z,100.00
2018-10-19T01:47:00.670Z,100.00
2018-10-19T01:49:29.019Z,100.00
2018-10-19T01:51:57.337Z,100.00
2018-10-19T01:54:26.031Z,100.00
2018-10-19T01:56:54.392Z,100.00
2018-10-19T01:59:22.711Z,100.00
2018-10-19T02:01:51.168Z,100.00
2018-10-19T02:04:19.891Z,100.00
2018-10-19T02:06:48.263Z,100.00
2018-10-19T02:09:16.973Z,100.00
2018-10-19T02:11:45.288Z,100.00
2018-10-19T02:14:13.870Z,100.00
2018-10-19T02:16:42.560Z,100.00
2018-10-19T02:19:10.906Z,100.00
2018-10-19T02:21:39.219Z,100.00
2018-10-19T02:24:07.487Z,100.00
2018-10-19T02:26:36.290Z,100.00
2018-10-19T02:29:05.011Z,100.00
2018-10-19T02:31:33.411Z,100.00
2018-10-19T02:34:01.668Z,100.00
2018-10-19T02:36:30.106Z,100.00
2018-10-19T02:38:58.899Z,100.00
2018-10-19T02:41:27.337Z,100.00
2018-10-19T02:43:56.590Z,100.00
2018-10-19T02:46:25.537Z,100.00
2018-10-19T02:48:53.896Z,100.00
2018-10-19T02:51:22.198Z,100.00
2018-10-19T02:53:50.576Z,100.00
2018-10-19T02:56:19.067Z,100.00
2018-10-19T02:58:47.605Z,100.00
2018-10-19T03:01:16.675Z,100.00
2018-10-19T03:03:44.985Z,100.00
2018-10-19T03:06:13.652Z,100.00
2018-10-19T03:08:43.659Z,100.00
2018-10-19T03:11:12.106Z,100.00
2018-10-19T03:13:40.536Z,100.00
2018-10-19T03:16:08.990Z,100.00
2018-10-19T03:18:37.322Z,100.00
2018-10-19T03:21:06.086Z,100.00
2018-10-19T03:23:34.413Z,100.00
2018-10-19T03:26:02.726Z,100.00
2018-10-19T03:28:31.031Z,100.00
2018-10-19T03:30:59.396Z,100.00
2018-10-19T03:33:28.009Z,100.00
2018-10-19T03:35:56.328Z,100.00
2018-10-19T03:38:24.628Z,100.00
2018-10-19T03:40:52.972Z,100.00
2018-10-19T03:43:21.284Z,100.00
2018-10-19T03:45:49.604Z,100.00
2018-10-19T03:48:17.909Z,100.00
2018-10-19T03:50:46.281Z,100.00
2018-10-19T03:53:14.776Z,100.00
2018-10-19T03:55:43.065Z,100.00
2018-10-19T03:58:11.522Z,100.00
2018-10-19T04:03:36.446Z,100.00
2018-10-19T04:06:05.575Z,100.00
2018-10-19T04:08:34.850Z,100.00
2018-10-19T04:11:03.984Z,100.00
2018-10-19T04:13:33.125Z,100.00
2018-10-19T04:16:02.379Z,100.00
2018-10-19T04:18:31.525Z,100.00
2018-10-19T04:21:00.762Z,100.00
2018-10-19T04:23:29.920Z,100.00
2018-10-19T04:25:59.171Z,100.00
2018-10-19T04:28:28.419Z,100.00
2018-10-19T04:30:57.967Z,100.00
2018-10-19T04:33:27.632Z,100.00
2018-10-19T04:35:56.976Z,100.00
2018-10-19T04:38:26.013Z,100.00
2018-10-19T04:40:55.380Z,100.00
2018-10-19T04:43:25.673Z,100.00
2018-10-19T04:45:54.980Z,100.00
2018-10-19T04:48:24.153Z,100.00
2018-10-19T04:50:53.445Z,100.00
2018-10-19T04:53:22.656Z,100.00
2018-10-19T04:55:51.982Z,100.00
2018-10-19T04:58:21.081Z,100.00
2018-10-19T05:00:50.313Z,100.00
2018-10-19T05:03:19.745Z,100.00
2018-10-19T05:05:49.086Z,100.00
2018-10-19T05:08:18.315Z,100.00
2018-10-19T05:10:47.512Z,100.00
2018-10-19T05:13:16.759Z,100.00
2018-10-19T05:15:45.976Z,100.00
2018-10-19T05:18:15.285Z,100.00
2018-10-19T05:20:44.698Z,100.00
2018-10-19T05:23:14.335Z,100.00
2018-10-19T05:25:43.732Z,100.00
2018-10-19T05:28:13.280Z,100.00
2018-10-19T05:30:42.706Z,100.00
2018-10-19T05:33:12.131Z,100.00
2018-10-19T05:35:41.752Z,100.00
2018-10-19T05:38:12.534Z,100.00
2018-10-19T05:40:41.858Z,100.00
2018-10-19T05:43:11.136Z,100.00
2018-10-19T05:45:40.244Z,100.00
2018-10-19T05:48:09.528Z,100.00
2018-10-19T05:50:38.884Z,100.00
2018-10-19T05:53:07.991Z,100.00
2018-10-19T05:55:37.138Z,100.00
2018-10-19T05:58:07.145Z,100.00
2018-10-19T06:00:37.571Z,100.00
2018-10-19T06:03:09.867Z,100.00
2018-10-19T06:05:39.945Z,100.00
2018-10-19T06:08:09.559Z,100.00
2018-10-19T06:10:38.949Z,100.00
2018-10-19T06:13:09.367Z,100.00
2018-10-19T06:15:39.817Z,100.00
2018-10-19T06:18:09.328Z,100.00
2018-10-19T06:20:41.432Z,100.00
2018-10-19T06:23:10.825Z,100.00
2018-10-19T06:25:40.105Z,100.00
2018-10-19T06:28:09.691Z,100.00
2018-10-19T06:30:39.054Z,100.00
2018-10-19T06:33:08.571Z,100.00
2018-10-19T06:35:38.022Z,100.00
2018-10-19T06:38:07.934Z,100.00
2018-10-19T06:40:37.175Z,100.00
2018-10-19T06:43:06.374Z,100.00
2018-10-19T06:45:35.622Z,100.00
2018-10-19T06:48:04.863Z,100.00
2018-10-19T06:50:34.128Z,100.00
2018-10-19T06:53:03.236Z,100.00
2018-10-19T06:55:32.432Z,100.00
2018-10-19T06:58:01.575Z,100.00
2018-10-19T07:00:30.913Z,100.00
2018-10-19T07:03:00.331Z,100.00
2018-10-19T07:05:29.698Z,100.00
2018-10-19T07:07:59.132Z,100.00
2018-10-19T07:10:28.320Z,100.00
2018-10-19T07:12:57.738Z,100.00
2018-10-19T07:15:27.020Z,100.00
2018-10-19T07:17:56.316Z,100.00
2018-10-19T07:20:25.678Z,100.00
2018-10-19T07:22:55.101Z,100.00
2018-10-19T07:25:24.420Z,100.00
2018-10-19T07:27:53.508Z,100.00
2018-10-19T07:30:22.823Z,100.00
2018-10-19T07:32:52.140Z,100.00
2018-10-19T07:35:21.453Z,100.00
2018-10-19T07:37:50.727Z,100.00
2018-10-19T07:40:19.936Z,100.00
2018-10-19T07:42:49.305Z,100.00
2018-10-19T07:45:18.684Z,100.00
2018-10-19T07:47:48.128Z,100.00
2018-10-19T07:50:17.270Z,100.00
2018-10-19T07:52:46.690Z,100.00
2018-10-19T07:55:16.132Z,100.00
2018-10-19T07:57:45.656Z,100.00
2018-10-19T08:00:15.546Z,100.00
2018-10-19T08:02:44.637Z,100.00
2018-10-19T08:05:13.956Z,100.00
2018-10-19T08:07:43.035Z,100.00
2018-10-19T08:10:12.291Z,100.00
2018-10-19T08:12:41.461Z,100.00
2018-10-19T08:15:10.744Z,100.00
2018-10-19T08:17:40.105Z,100.00
2018-10-19T08:20:09.801Z,100.00
2018-10-19T08:22:39.044Z,100.00
2018-10-19T08:25:08.680Z,100.00
2018-10-19T08:27:37.867Z,100.00
2018-10-19T08:30:07.192Z,100.00
2018-10-19T08:32:36.559Z,100.00
2018-10-19T08:35:06.374Z,100.00
2018-10-19T08:37:35.627Z,100.00
2018-10-19T08:40:05.669Z,100.00
2018-10-19T08:42:34.968Z,100.00
2018-10-19T08:45:04.264Z,100.00
2018-10-19T08:47:33.456Z,100.00
2018-10-19T08:50:02.729Z,100.00
2018-10-19T08:52:31.898Z,100.00
2018-10-19T08:55:01.117Z,100.00
2018-10-19T08:57:30.283Z,100.00
2018-10-19T08:59:59.387Z,100.00
2018-10-19T09:02:28.692Z,100.00
2018-10-19T09:04:57.931Z,100.00
2018-10-19T09:07:27.510Z,100.00
2018-10-19T09:09:56.883Z,100.00
2018-10-19T09:12:26.253Z,100.00
2018-10-19T09:14:56.919Z,100.00
2018-10-19T09:17:27.406Z,100.00
2018-10-19T09:19:56.576Z,100.00
2018-10-19T09:22:25.843Z,100.00
2018-10-19T09:24:55.105Z,100.00
2018-10-19T09:27:24.856Z,100.00
2018-10-19T09:29:54.040Z,100.00
2018-10-19T09:32:23.377Z,100.00
2018-10-19T09:34:52.763Z,100.00
2018-10-19T09:37:21.966Z,100.00
2018-10-19T09:39:55.226Z,100.00
2018-10-19T09:42:24.784Z,100.00
2018-10-19T09:44:54.046Z,100.00
2018-10-19T09:47:23.308Z,100.00
2018-10-19T09:49:52.512Z,100.00
2018-10-19T09:52:21.656Z,100.00
2018-10-19T09:54:50.871Z,100.00
2018-10-19T09:57:20.147Z,100.00
2018-10-19T09:59:49.519Z,100.00
2018-10-19T10:02:18.634Z,100.00
2018-10-19T10:04:47.915Z,100.00
2018-10-19T10:07:17.178Z,100.00
2018-10-19T10:09:46.499Z,100.00
2018-10-19T10:12:15.777Z,100.00
2018-10-19T10:14:45.146Z,100.00
2018-10-19T10:17:14.465Z,100.00
2018-10-19T10:19:43.961Z,100.00
2018-10-19T10:22:13.458Z,100.00
2018-10-19T10:24:42.786Z,100.00
2018-10-19T10:27:11.971Z,100.00
2018-10-19T10:29:41.709Z,100.00
2018-10-19T10:32:11.219Z,100.00
2018-10-19T10:34:41.903Z,100.00
2018-10-19T10:37:11.712Z,100.00
2018-10-19T10:39:40.678Z,99.13
2018-10-19T10:42:09.978Z,92.02
2018-10-19T10:44:39.477Z,94.83
2018-10-19T10:47:09.432Z,93.36
2018-10-19T10:49:38.767Z,94.70
2018-10-19T10:52:08.152Z,94.73
2018-10-19T10:54:37.548Z,98.73
2018-10-19T10:57:07.148Z,92.39
2018-10-19T10:59:36.537Z,92.51
2018-10-19T11:02:05.922Z,94.82
2018-10-19T11:04:34.945Z,96.88
2018-10-19T11:07:04.235Z,100.00
2018-10-19T11:09:33.532Z,100.00
2018-10-19T11:12:02.637Z,100.00
2018-10-19T11:14:31.864Z,100.00
2018-10-19T11:17:01.241Z,100.00
2018-10-19T11:19:30.517Z,92.87
2018-10-19T11:21:59.773Z,88.62
2018-10-19T11:24:29.239Z,84.28
2018-10-19T11:26:58.450Z,88.28
2018-10-19T11:29:27.601Z,86.57
2018-10-19T11:31:56.776Z,85.48
2018-10-19T11:34:26.105Z,86.37
2018-10-19T11:36:55.478Z,85.66
2018-10-19T11:39:24.706Z,80.89
2018-10-19T11:41:53.924Z,70.87
2018-10-19T11:44:23.081Z,63.35
2018-10-19T11:46:52.324Z,59.42
2018-10-19T11:49:21.625Z,61.36
2018-10-19T11:51:50.920Z,60.80
2018-10-19T11:54:20.192Z,66.14
2018-10-19T11:56:49.542Z,66.87
2018-10-19T11:59:18.679Z,68.16
2018-10-19T12:01:47.931Z,68.65
2018-10-19T12:04:20.064Z,66.62
2018-10-19T12:06:49.198Z,64.74
2018-10-19T12:09:18.355Z,72.22
2018-10-19T12:11:47.405Z,71.07
2018-10-19T12:14:16.539Z,71.67
2018-10-19T12:16:46.058Z,72.88
2018-10-19T12:19:15.259Z,72.02
2018-10-19T12:21:44.510Z,73.44
2018-10-19T12:24:13.840Z,72.73
2018-10-19T12:26:43.179Z,72.70
2018-10-19T12:29:12.367Z,74.17
2018-10-19T12:31:43.375Z,73.62
2018-10-19T12:34:12.425Z,74.53
2018-10-19T12:36:41.770Z,78.74
2018-10-19T12:39:11.565Z,79.26
2018-10-19T12:41:40.853Z,75.13
2018-10-19T12:44:10.016Z,78.59
2018-10-19T12:46:51.032Z,78.35
2018-10-19T12:49:22.008Z,76.73
2018-10-19T12:51:51.245Z,72.60
2018-10-19T12:54:20.396Z,71.59
2018-10-19T12:56:49.879Z,69.82
2018-10-19T12:59:19.129Z,71.36
2018-10-19T13:01:48.528Z,72.64
2018-10-19T13:04:26.791Z,69.11
2018-10-19T13:06:56.149Z,71.43
2018-10-19T13:09:25.351Z,70.85
2018-10-19T13:11:54.535Z,74.26
2018-10-19T13:14:23.720Z,75.34
2018-10-19T13:16:53.054Z,73.93
2018-10-19T13:19:22.395Z,71.92
2018-10-19T13:21:51.587Z,68.19
2018-10-19T13:24:20.917Z,68.33
2018-10-19T13:26:50.255Z,74.96
2018-10-19T13:29:19.412Z,73.37
2018-10-19T13:31:48.805Z,74.44
2018-10-19T13:34:18.175Z,72.53
2018-10-19T13:36:48.309Z,72.68
2018-10-19T13:39:17.629Z,73.00
2018-10-19T13:41:46.825Z,76.12
2018-10-19T13:44:16.128Z,73.68
2018-10-19T13:46:45.372Z,74.37
2018-10-19T13:49:14.519Z,74.39
2018-10-19T13:51:43.760Z,74.64
2018-10-19T13:54:12.837Z,73.41
2018-10-19T13:56:42.152Z,74.29
2018-10-19T13:59:11.570Z,73.42
2018-10-19T14:01:40.751Z,76.75
2018-10-19T14:04:09.621Z,78.65
2018-10-19T14:06:38.752Z,78.83
2018-10-19T14:09:10.305Z,78.19
2018-10-19T14:11:40.046Z,80.40
2018-10-19T14:14:09.272Z,77.91
2018-10-19T14:16:38.627Z,78.92
2018-10-19T14:19:07.998Z,81.96
2018-10-19T14:21:36.883Z,80.69
2018-10-19T14:24:06.113Z,81.85
2018-10-19T14:26:35.527Z,79.96
2018-10-19T14:29:05.059Z,85.85
2018-10-19T14:31:34.402Z,83.82
2018-10-19T14:34:03.696Z,84.48
2018-10-19T14:36:32.883Z,86.42
2018-10-19T14:39:02.123Z,80.74
2018-10-19T14:41:31.493Z,79.08
2018-10-19T14:44:00.808Z,84.73
2018-10-19T14:46:30.087Z,78.05
2018-10-19T14:49:00.079Z,79.89
2018-10-19T14:51:29.648Z,85.57
2018-10-19T14:53:59.627Z,79.24
2018-10-19T14:56:28.940Z,86.59
2018-10-19T14:58:58.347Z,84.69
2018-10-19T15:01:27.566Z,84.73
2018-10-19T15:03:56.816Z,80.36
2018-10-19T15:06:26.056Z,85.43
2018-10-19T15:08:55.166Z,88.69
2018-10-19T15:11:25.003Z,86.08
2018-10-19T15:13:53.825Z,90.68
2018-10-19T15:16:23.056Z,91.77
2018-10-19T15:18:52.433Z,92.36
2018-10-19T15:21:21.737Z,92.56
2018-10-19T15:23:51.235Z,93.36
2018-10-19T15:26:20.463Z,95.12
2018-10-19T15:28:49.844Z,96.54
2018-10-19T15:31:19.379Z,95.06
2018-10-19T15:33:48.940Z,95.57
2018-10-19T15:36:18.175Z,94.99
2018-10-19T15:38:47.437Z,97.06
2018-10-19T15:41:16.683Z,97.19
2018-10-19T15:43:45.941Z,94.83
2018-10-19T15:46:15.418Z,100.00
2018-10-19T15:48:44.794Z,100.00
2018-10-19T15:51:14.124Z,100.00
2018-10-19T15:53:43.429Z,100.00
2018-10-19T15:56:12.743Z,100.00
2018-10-19T15:58:42.023Z,100.00
2018-10-19T16:01:11.264Z,100.00
2018-10-19T16:03:40.611Z,100.00
2018-10-19T16:06:09.979Z,100.00
2018-10-19T16:08:39.319Z,100.00
2018-10-19T16:11:08.697Z,100.00
2018-10-19T16:13:38.123Z,100.00
2018-10-19T16:16:07.889Z,100.00
2018-10-19T16:18:37.168Z,100.00
2018-10-19T16:21:06.520Z,100.00
2018-10-19T16:23:35.768Z,100.00
2018-10-19T16:26:05.128Z,100.00
2018-10-19T16:28:34.494Z,100.00
2018-10-19T16:31:03.800Z,100.00
2018-10-19T16:33:32.848Z,100.00
2018-10-19T16:36:02.522Z,100.00
2018-10-19T16:38:31.748Z,100.00
2018-10-19T16:41:00.981Z,100.00
2018-10-19T16:43:30.149Z,100.00
2018-10-19T16:45:59.367Z,100.00
2018-10-19T16:48:28.568Z,100.00
2018-10-19T16:50:57.697Z,100.00
2018-10-19T16:53:26.972Z,100.00
2018-10-19T16:55:56.348Z,100.00
2018-10-19T16:58:25.982Z,100.00
2018-10-19T17:00:55.159Z,100.00
2018-10-19T17:03:24.382Z,100.00
2018-10-19T17:05:53.831Z,100.00
2018-10-19T17:08:22.884Z,100.00
2018-10-19T17:10:52.107Z,100.00
2018-10-19T17:13:21.487Z,100.00
2018-10-19T17:15:50.928Z,100.00
2018-10-19T17:18:20.265Z,100.00
2018-10-19T17:20:49.392Z,100.00
2018-10-19T17:23:18.427Z,100.00
2018-10-19T17:25:47.552Z,100.00
2018-10-19T17:28:16.857Z,100.00
2018-10-19T17:30:46.077Z,100.00
2018-10-19T17:33:15.512Z,100.00
2018-10-19T17:35:44.759Z,100.00
2018-10-19T17:38:13.959Z,100.00
2018-10-19T17:40:43.252Z,100.00
2018-10-19T17:43:12.393Z,100.00
2018-10-19T17:45:41.768Z,100.00
2018-10-19T17:48:11.098Z,100.00
2018-10-19T17:50:40.617Z,100.00
2018-10-19T17:53:09.823Z,100.00
2018-10-19T17:55:39.063Z,100.00
2018-10-19T17:58:08.219Z,100.00
2018-10-19T18:00:37.718Z,100.00
2018-10-19T18:03:07.311Z,100.00
2018-10-19T18:05:36.571Z,100.00
2018-10-19T18:08:05.552Z,100.00
2018-10-19T18:10:34.664Z,100.00
2018-10-19T18:13:04.029Z,100.00
2018-10-19T18:15:34.539Z,100.00
2018-10-19T18:18:04.053Z,100.00
2018-10-19T18:20:33.623Z,100.00
2018-10-19T18:23:03.025Z,100.00
2018-10-19T18:25:32.214Z,100.00
2018-10-19T18:28:01.492Z,100.00
2018-10-19T18:30:30.829Z,100.00
2018-10-19T18:32:59.965Z,100.00
2018-10-19T18:35:29.093Z,100.00
2018-10-19T18:37:58.320Z,100.00
2018-10-19T18:40:27.504Z,100.00
2018-10-19T18:42:57.128Z,100.00
2018-10-19T18:45:26.528Z,100.00
2018-10-19T18:47:55.682Z,100.00
2018-10-19T18:50:25.166Z,100.00
2018-10-19T18:52:54.271Z,100.00
2018-10-19T18:55:23.500Z,100.00
2018-10-19T18:57:52.874Z,100.00
2018-10-19T19:00:29.748Z,100.00
2018-10-19T19:03:13.690Z,100.00
2018-10-19T19:05:42.911Z,100.00
2018-10-19T19:08:12.144Z,100.00
2018-10-19T19:10:41.424Z,100.00
2018-10-19T19:13:15.487Z,100.00
2018-10-19T19:15:44.719Z,100.00
2018-10-19T19:18:13.891Z,100.00
2018-10-19T19:20:44.045Z,100.00
2018-10-19T19:23:13.166Z,100.00
2018-10-19T19:25:47.367Z,100.00
2018-10-19T19:28:16.572Z,100.00
2018-10-19T19:30:45.662Z,100.00
2018-10-19T19:33:20.027Z,100.00
2018-10-19T19:35:49.333Z,100.00
2018-10-19T19:38:18.351Z,100.00
2018-10-19T19:40:52.797Z,100.00
2018-10-19T19:43:21.967Z,100.00
2018-10-19T19:45:51.316Z,100.00
2018-10-19T19:48:25.531Z,100.00
2018-10-19T19:50:54.891Z,100.00
2018-10-19T19:53:24.054Z,100.00
2018-10-19T19:55:53.193Z,100.00
2018-10-19T19:58:22.557Z,100.00
2018-10-19T20:00:51.788Z,100.00
2018-10-19T20:03:21.061Z,100.00
2018-10-19T20:05:50.344Z,100.00
2018-10-19T20:08:19.691Z,100.00
2018-10-19T20:10:48.676Z,100.00
2018-10-19T20:13:17.939Z,100.00
2018-10-19T20:15:47.286Z,100.00
2018-10-19T20:18:16.606Z,100.00
2018-10-19T20:20:45.795Z,100.00
2018-10-19T20:23:15.109Z,100.00
2018-10-19T20:25:44.402Z,100.00
2018-10-19T20:28:13.662Z,100.00
2018-10-19T20:30:42.870Z,100.00
2018-10-19T20:33:12.162Z,100.00
2018-10-19T20:35:41.412Z,100.00
2018-10-19T20:38:10.703Z,100.00
2018-10-19T20:40:39.973Z,100.00
2018-10-19T20:43:09.262Z,100.00
2018-10-19T20:45:38.475Z,100.00
2018-10-19T20:48:07.662Z,100.00
2018-10-19T20:50:36.956Z,100.00
2018-10-19T20:53:06.449Z,100.00
2018-10-19T20:55:35.579Z,100.00
2018-10-19T20:58:04.632Z,100.00
2018-10-19T21:00:33.980Z,100.00
2018-10-19T21:03:03.248Z,100.00
2018-10-19T21:05:41.487Z,100.00
2018-10-19T21:08:10.937Z,100.00
2018-10-19T21:10:40.090Z,100.00
2018-10-19T21:13:09.069Z,100.00
2018-10-19T21:15:38.281Z,100.00
2018-10-19T21:18:07.663Z,100.00
2018-10-19T21:20:36.875Z,100.00
2018-10-19T21:23:06.195Z,100.00
2018-10-19T21:25:35.565Z,100.00
2018-10-19T21:28:04.848Z,100.00
2018-10-19T21:30:33.970Z,100.00
2018-10-19T21:33:03.559Z,100.00
2018-10-19T21:35:32.868Z,100.00
2018-10-19T21:38:02.254Z,100.00
2018-10-19T21:40:31.582Z,100.00
2018-10-19T21:43:00.640Z,100.00
2018-10-19T21:45:29.906Z,100.00
2018-10-19T21:47:59.136Z,100.00
2018-10-19T21:50:28.357Z,100.00
2018-10-19T21:52:57.530Z,100.00
2018-10-19T21:55:26.943Z,100.00
2018-10-19T21:57:56.334Z,100.00
2018-10-19T22:00:25.672Z,100.00
2018-10-19T22:02:54.834Z,100.00
2018-10-19T22:05:24.060Z,100.00
2018-10-19T22:07:53.382Z,100.00
2018-10-19T22:10:23.217Z,100.00
2018-10-19T22:12:52.593Z,100.00
2018-10-19T22:15:21.789Z,100.00
2018-10-19T22:17:50.937Z,100.00
2018-10-19T22:20:20.314Z,100.00
2018-10-19T22:22:49.543Z,100.00
2018-10-19T22:25:19.186Z,100.00
2018-10-19T22:27:48.571Z,100.00
2018-10-19T22:30:17.795Z,100.00
2018-10-19T22:32:47.045Z,100.00
2018-10-19T22:35:16.348Z,100.00
2018-10-19T22:37:45.483Z,100.00
2018-10-19T22:40:14.680Z,100.00
2018-10-19T22:42:43.888Z,100.00
2018-10-19T22:45:13.104Z,100.00
2018-10-19T22:47:42.258Z,100.00
2018-10-19T22:50:11.476Z,100.00
2018-10-19T22:52:40.664Z,100.00
2018-10-19T22:55:10.159Z,100.00
2018-10-19T22:57:39.356Z,100.00
2018-10-19T23:00:09.367Z,100.00
2018-10-19T23:02:38.664Z,100.00
2018-10-19T23:05:07.990Z,100.00
2018-10-19T23:07:37.193Z,100.00
2018-10-19T23:10:07.284Z,100.00
2018-10-19T23:12:36.846Z,100.00
2018-10-19T23:15:06.603Z,100.00
2018-10-19T23:17:35.720Z,100.00
2018-10-19T23:20:04.976Z,100.00
2018-10-19T23:22:34.096Z,100.00
2018-10-19T23:25:03.370Z,100.00
2018-10-19T23:27:32.622Z,100.00
2018-10-19T23:31:04.653Z,100.00
2018-10-19T23:33:34.008Z,100.00
2018-10-19T23:36:03.618Z,100.00
2018-10-19T23:38:32.647Z,100.00
2018-10-19T23:41:01.955Z,100.00
2018-10-19T23:43:31.269Z,100.00
2018-10-19T23:46:00.631Z,100.00
2018-10-19T23:48:29.976Z,100.00
2018-10-19T23:50:59.098Z,100.00
2018-10-19T23:53:28.478Z,100.00
2018-10-19T23:55:57.703Z,100.00
2018-10-19T23:58:26.882Z,100.00
